Time;durP1;ratioP1;P1;durP2;ratioP2;P2;SDS_P1;SDS_P2;PMS_P1;PMS_P2;Temp;Humidity;BMP_temperature;BMP_pressure;BME280_temperature;BME280_humidity;BME280_pressure;Samples;Min_cycle;Max_cycle;Signal;HPM_P1;HPM_P2
2023/08/17 00:00:48;;;;;;;4.37;3.10;;;22.40;99.90;;;;;;5056958;28;20478;-82
2023/08/17 00:03:15;;;;;;;3.73;2.93;;;22.40;99.90;;;;;;5055408;28;20478;-81
2023/08/17 00:05:45;;;;;;;3.20;3.00;;;22.40;99.90;;;;;;5058888;28;20916;-81
2023/08/17 00:08:14;;;;;;;3.50;3.17;;;22.40;99.90;;;;;;5056182;28;20471;-80
2023/08/17 00:11:02;;;;;;;3.03;2.83;;;22.40;99.90;;;;;;5056571;28;20463;-80
2023/08/17 00:13:29;;;;;;;5.97;3.20;;;22.40;99.90;;;;;;5057182;28;20452;-82
2023/08/17 00:16:05;;;;;;;3.83;3.50;;;22.40;99.90;;;;;;5067808;28;20463;-81
2023/08/17 00:18:33;;;;;;;4.73;3.30;;;22.30;99.90;;;;;;5059141;28;20452;-79
2023/08/17 00:21:15;;;;;;;6.00;3.87;;;22.30;99.90;;;;;;5057459;28;20521;-80
2023/08/17 00:23:42;;;;;;;4.03;3.30;;;22.20;99.90;;;;;;5057693;28;21407;-79
2023/08/17 00:26:10;;;;;;;2.77;2.57;;;22.20;99.90;;;;;;5059975;28;20992;-80
2023/08/17 00:28:38;;;;;;;4.07;3.23;;;22.20;99.90;;;;;;5056582;28;20479;-81
2023/08/17 00:31:05;;;;;;;6.47;3.63;;;22.10;99.90;;;;;;5059186;28;20944;-82
2023/08/17 00:33:34;;;;;;;6.23;3.60;;;22.00;99.90;;;;;;5058333;28;20494;-81
2023/08/17 00:36:01;;;;;;;3.57;3.00;;;22.00;99.90;;;;;;5058628;28;20467;-79
2023/08/17 00:38:28;;;;;;;4.67;3.27;;;22.00;99.90;;;;;;5056235;28;20467;-81
2023/08/17 00:40:57;;;;;;;4.43;3.13;;;22.00;99.90;;;;;;5058305;28;20804;-81
2023/08/17 00:43:25;;;;;;;5.43;3.17;;;21.90;99.90;;;;;;5055292;28;20472;-79
2023/08/17 00:45:52;;;;;;;4.63;3.30;;;21.90;99.90;;;;;;5056022;28;20490;-81
2023/08/17 00:48:19;;;;;;;4.07;3.73;;;21.90;99.90;;;;;;5055831;28;20475;-81
2023/08/17 00:50:50;;;;;;;5.73;3.30;;;21.80;99.90;;;;;;5055745;28;20953;-82
2023/08/17 00:53:17;;;;;;;4.10;3.70;;;21.80;99.90;;;;;;5057891;28;20487;-80
2023/08/17 00:55:44;;;;;;;4.50;2.97;;;21.80;99.90;;;;;;5056480;28;20550;-81
2023/08/17 00:58:11;;;;;;;3.77;3.20;;;21.80;99.90;;;;;;5057149;28;20472;-81
2023/08/17 01:00:41;;;;;;;4.47;3.57;;;21.80;99.90;;;;;;5055428;28;20479;-80
2023/08/17 01:03:08;;;;;;;4.43;3.27;;;21.80;99.90;;;;;;5055861;28;20496;-81
2023/08/17 01:05:36;;;;;;;4.13;2.73;;;21.80;99.90;;;;;;5055813;28;20550;-80
2023/08/17 01:08:03;;;;;;;4.00;3.13;;;21.80;99.90;;;;;;5056872;28;20470;-81
2023/08/17 01:10:38;;;;;;;6.83;3.53;;;21.70;99.90;;;;;;5056169;28;20495;-81
2023/08/17 01:13:10;;;;;;;4.50;3.23;;;21.70;99.90;;;;;;5056063;28;20509;-81
2023/08/17 01:15:42;;;;;;;4.67;4.17;;;21.60;99.90;;;;;;5055773;28;20533;-80
2023/08/17 01:18:17;;;;;;;3.07;2.77;;;21.60;99.90;;;;;;5056024;28;20490;-81
2023/08/17 01:20:47;;;;;;;4.17;3.63;;;21.60;99.90;;;;;;5055999;28;20478;-81
2023/08/17 01:23:16;;;;;;;5.33;3.90;;;21.60;99.90;;;;;;5055124;28;20878;-79
2023/08/17 01:25:43;;;;;;;5.07;3.40;;;21.50;99.90;;;;;;5055029;28;20487;-81
2023/08/17 01:28:10;;;;;;;4.00;3.30;;;21.50;99.90;;;;;;5055174;28;20539;-79
2023/08/17 01:30:51;;;;;;;5.63;3.57;;;21.50;99.90;;;;;;5056363;28;20479;-81
2023/08/17 01:33:25;;;;;;;4.57;4.10;;;21.50;99.90;;;;;;5053114;28;20485;-78
2023/08/17 01:36:01;;;;;;;3.60;3.07;;;21.50;99.90;;;;;;5062140;28;20487;-79
2023/08/17 01:38:30;;;;;;;4.77;3.23;;;21.50;99.90;;;;;;5054038;28;20853;-81
2023/08/17 01:40:58;;;;;;;3.90;3.23;;;21.40;99.90;;;;;;5055440;28;20535;-79
2023/08/17 01:43:27;;;;;;;4.40;3.73;;;21.40;99.90;;;;;;5054059;28;20546;-80
2023/08/17 01:45:54;;;;;;;5.63;3.20;;;21.40;99.90;;;;;;5058273;28;21344;-79
2023/08/17 01:48:21;;;;;;;4.63;3.40;;;21.40;99.90;;;;;;5059512;28;20471;-81
2023/08/17 01:50:48;;;;;;;3.80;3.50;;;21.40;99.90;;;;;;5057617;28;20537;-81
2023/08/17 01:53:15;;;;;;;3.70;3.37;;;21.30;99.90;;;;;;5058968;28;20842;-79
2023/08/17 01:55:43;;;;;;;6.63;3.70;;;21.30;99.90;;;;;;5059353;28;20483;-81
2023/08/17 01:58:10;;;;;;;5.77;3.90;;;21.30;99.90;;;;;;5059871;28;20529;-82
2023/08/17 02:00:40;;;;;;;7.23;3.47;;;21.20;99.90;;;;;;5059196;28;20474;-81
2023/08/17 02:03:07;;;;;;;3.87;3.40;;;21.20;99.90;;;;;;5061028;28;20812;-81
2023/08/17 02:05:34;;;;;;;3.93;2.77;;;21.20;99.90;;;;;;5057236;28;20503;-81
2023/08/17 02:08:01;;;;;;;4.13;2.83;;;21.20;99.90;;;;;;5058562;28;20546;-81
2023/08/17 02:10:28;;;;;;;3.33;3.13;;;21.20;99.90;;;;;;5058543;28;20471;-81
2023/08/17 02:12:56;;;;;;;5.60;3.33;;;21.20;99.90;;;;;;5057541;28;20530;-81
2023/08/17 02:15:23;;;;;;;3.23;2.93;;;21.10;99.90;;;;;;5059317;28;20868;-79
2023/08/17 02:17:50;;;;;;;6.33;3.73;;;21.10;99.90;;;;;;5058657;28;20777;-82
2023/08/17 02:20:17;;;;;;;3.40;3.10;;;21.20;99.90;;;;;;5060376;28;20494;-79
2023/08/17 02:22:44;;;;;;;4.03;3.70;;;21.10;99.90;;;;;;5061975;28;20473;-81
2023/08/17 02:25:13;;;;;;;5.30;3.57;;;21.10;99.90;;;;;;5062070;28;20498;-81
2023/08/17 02:27:40;;;;;;;3.80;3.30;;;21.10;99.90;;;;;;5068039;28;20477;-81
2023/08/17 02:30:09;;;;;;;3.70;3.00;;;21.10;99.90;;;;;;5065666;28;20501;-79
2023/08/17 02:32:36;;;;;;;5.17;3.50;;;21.10;99.90;;;;;;5064043;28;20542;-80
2023/08/17 02:35:04;;;;;;;4.23;3.20;;;21.10;99.90;;;;;;5070719;28;20462;-81
2023/08/17 02:37:34;;;;;;;6.30;3.63;;;21.10;99.90;;;;;;5071090;28;20529;-81
2023/08/17 02:40:01;;;;;;;3.80;3.40;;;21.10;99.90;;;;;;5067203;28;20526;-81
2023/08/17 02:42:28;;;;;;;5.23;3.40;;;21.10;99.90;;;;;;5066268;28;20505;-81
2023/08/17 02:44:55;;;;;;;4.37;3.40;;;21.00;99.90;;;;;;5072528;28;20523;-81
2023/08/17 02:47:23;;;;;;;6.47;3.73;;;20.90;99.90;;;;;;5069794;28;20459;-80
2023/08/17 02:49:50;;;;;;;3.67;3.33;;;20.90;99.90;;;;;;5062571;28;20554;-80
2023/08/17 02:52:17;;;;;;;6.00;3.67;;;20.90;99.90;;;;;;5061164;28;20479;-80
2023/08/17 02:54:44;;;;;;;4.43;3.30;;;20.80;99.90;;;;;;5061355;28;20487;-80
2023/08/17 02:57:12;;;;;;;5.07;3.57;;;20.80;99.90;;;;;;5059076;28;20538;-80
2023/08/17 02:59:39;;;;;;;3.80;3.20;;;20.80;99.90;;;;;;5071460;28;20467;-82
2023/08/17 03:02:06;;;;;;;5.20;3.60;;;20.80;99.90;;;;;;5067267;28;20459;-82
2023/08/17 03:04:34;;;;;;;6.50;3.77;;;20.80;99.90;;;;;;5069216;28;20475;-82
2023/08/17 03:07:01;;;;;;;3.67;3.33;;;20.70;99.90;;;;;;5063125;28;20483;-82
2023/08/17 03:09:28;;;;;;;3.83;3.53;;;20.70;99.90;;;;;;5065339;28;20475;-80
2023/08/17 03:11:55;;;;;;;4.47;3.80;;;20.70;99.90;;;;;;5061098;28;20471;-82
2023/08/17 03:14:22;;;;;;;3.97;3.23;;;20.70;99.90;;;;;;5066919;28;20973;-81
2023/08/17 03:16:49;;;;;;;4.97;3.43;;;20.70;99.90;;;;;;5071175;28;20473;-82
2023/08/17 03:19:16;;;;;;;4.03;3.63;;;20.70;99.90;;;;;;5074426;28;20459;-82
2023/08/17 03:21:44;;;;;;;3.57;3.27;;;20.70;99.90;;;;;;5071775;28;20525;-80
2023/08/17 03:24:11;;;;;;;4.97;3.30;;;20.70;99.90;;;;;;5064395;28;20467;-82
2023/08/17 03:26:38;;;;;;;7.13;3.47;;;20.70;99.90;;;;;;5059645;28;20506;-82
2023/08/17 03:29:08;;;;;;;5.50;3.83;;;20.70;99.90;;;;;;5060590;28;20495;-81
2023/08/17 03:31:35;;;;;;;4.47;3.00;;;20.70;99.90;;;;;;5058060;28;20783;-81
2023/08/17 03:34:02;;;;;;;4.83;3.40;;;20.70;99.90;;;;;;5058563;28;20467;-82
2023/08/17 03:36:29;;;;;;;3.73;2.40;;;20.70;99.90;;;;;;5058033;28;20570;-80
2023/08/17 03:38:57;;;;;;;3.10;2.20;;;20.70;99.90;;;;;;5056583;28;20867;-82
2023/08/17 03:41:24;;;;;;;4.70;3.07;;;20.70;99.90;;;;;;5056841;28;20522;-80
2023/08/17 03:43:54;;;;;;;3.53;3.23;;;20.70;99.90;;;;;;5056144;28;20471;-82
2023/08/17 03:46:21;;;;;;;3.00;2.60;;;20.70;99.90;;;;;;5056510;28;20569;-82
2023/08/17 03:48:48;;;;;;;2.90;2.60;;;20.70;99.90;;;;;;5055734;28;20470;-80
2023/08/17 03:51:15;;;;;;;3.13;2.80;;;20.70;99.90;;;;;;5056170;28;20530;-80
2023/08/17 03:53:42;;;;;;;3.07;2.80;;;20.70;99.90;;;;;;5055460;28;20542;-80
2023/08/17 03:56:10;;;;;;;4.80;2.23;;;20.70;99.90;;;;;;5055412;28;20509;-81
2023/08/17 03:58:37;;;;;;;2.87;2.67;;;20.70;99.90;;;;;;5055861;28;20554;-81
2023/08/17 04:01:06;;;;;;;3.50;3.20;;;20.70;99.90;;;;;;5054794;28;20447;-79
2023/08/17 04:03:37;;;;;;;2.80;2.17;;;20.70;99.90;;;;;;5055059;28;20497;-79
2023/08/17 04:06:06;;;;;;;3.40;2.70;;;20.70;99.90;;;;;;5054373;28;20533;-80
2023/08/17 04:08:36;;;;;;;6.30;2.93;;;20.70;99.90;;;;;;5054480;28;20459;-81
2023/08/17 04:11:03;;;;;;;3.40;2.60;;;20.60;99.90;;;;;;5054499;28;20533;-81
2023/08/17 04:13:31;;;;;;;4.97;2.67;;;20.60;99.90;;;;;;5054964;28;20463;-80
2023/08/17 04:15:58;;;;;;;3.63;2.60;;;20.60;99.90;;;;;;5054284;28;20471;-80
2023/08/17 04:18:25;;;;;;;2.37;2.20;;;20.60;99.90;;;;;;5055354;28;20529;-81
2023/08/17 04:20:52;;;;;;;2.93;2.53;;;20.60;99.90;;;;;;5055552;28;20467;-82
2023/08/17 04:23:19;;;;;;;3.20;2.97;;;20.60;99.90;;;;;;5055010;28;20467;-81
2023/08/17 04:25:48;;;;;;;2.27;2.07;;;20.60;99.90;;;;;;5054694;28;20566;-82
2023/08/17 04:28:15;;;;;;;4.00;2.93;;;20.60;99.90;;;;;;5054646;28;20462;-81
2023/08/17 04:30:44;;;;;;;4.40;2.53;;;20.50;99.90;;;;;;5055668;28;20463;-79
2023/08/17 04:33:12;;;;;;;3.37;2.57;;;20.60;99.90;;;;;;5054321;28;20525;-79
2023/08/17 04:35:39;;;;;;;4.43;2.60;;;20.60;99.90;;;;;;5054694;28;20550;-80
2023/08/17 04:38:07;;;;;;;4.70;2.50;;;20.70;99.90;;;;;;5054198;28;20467;-82
2023/08/17 04:40:34;;;;;;;2.50;2.13;;;20.70;99.90;;;;;;5055235;28;20879;-81
2023/08/17 04:43:01;;;;;;;5.47;2.27;;;20.70;99.90;;;;;;5054546;28;20471;-82
2023/08/17 04:45:28;;;;;;;4.10;2.53;;;20.70;99.90;;;;;;5054353;28;20472;-79
2023/08/17 04:47:56;;;;;;;6.03;2.87;;;20.70;99.90;;;;;;5054130;28;20468;-80
2023/08/17 04:50:23;;;;;;;3.07;2.87;;;20.70;99.90;;;;;;5056236;28;20813;-79
2023/08/17 04:52:50;;;;;;;2.73;2.53;;;20.70;99.90;;;;;;5055214;28;20491;-79
2023/08/17 04:55:19;;;;;;;5.63;3.30;;;20.80;99.90;;;;;;5052570;28;20491;-81
2023/08/17 04:57:46;;;;;;;6.30;2.80;;;20.80;99.90;;;;;;5054186;28;20482;-81
2023/08/17 05:00:15;;;;;;;4.30;2.40;;;20.80;99.90;;;;;;5054634;28;20463;-82
2023/08/17 05:02:42;;;;;;;4.13;2.77;;;20.80;99.90;;;;;;5054523;28;20463;-79
2023/08/17 05:05:11;;;;;;;2.80;2.33;;;20.80;99.90;;;;;;5053698;28;20591;-80
2023/08/17 05:07:38;;;;;;;6.27;2.73;;;20.90;99.90;;;;;;5054570;28;20459;-79
2023/08/17 05:10:06;;;;;;;2.40;2.20;;;20.90;99.90;;;;;;5053798;28;20475;-80
2023/08/17 05:12:33;;;;;;;4.67;2.83;;;21.00;99.90;;;;;;5054622;28;20808;-81
2023/08/17 05:15:00;;;;;;;6.03;2.63;;;21.10;99.90;;;;;;5054777;28;20472;-81
2023/08/17 05:17:27;;;;;;;3.17;2.87;;;21.00;99.90;;;;;;5046735;28;20491;-82
2023/08/17 05:19:54;;;;;;;3.80;2.63;;;21.00;99.90;;;;;;5052903;28;20467;-80
2023/08/17 05:22:22;;;;;;;6.80;2.93;;;21.10;99.90;;;;;;5053541;28;20454;-80
2023/08/17 05:24:50;;;;;;;4.77;2.80;;;21.10;99.90;;;;;;5053796;28;20529;-82
2023/08/17 05:27:17;;;;;;;4.37;2.67;;;21.10;99.90;;;;;;5053647;28;20581;-80
2023/08/17 05:29:44;;;;;;;10.23;3.77;;;21.10;99.90;;;;;;5053870;28;20544;-81
2023/08/17 05:32:10;;;;;;;3.70;3.40;;;21.20;99.90;;;;;;5053635;28;20485;-82
2023/08/17 05:34:43;;;;;;;4.57;3.77;;;21.20;99.90;;;;;;5054242;28;20476;-80
2023/08/17 05:37:10;;;;;;;7.00;3.90;;;21.20;99.90;;;;;;5054021;28;20546;-81
2023/08/17 05:39:39;;;;;;;3.10;2.90;;;21.20;99.90;;;;;;5061922;28;20470;-79
2023/08/17 05:42:06;;;;;;;3.30;3.00;;;21.30;99.90;;;;;;5054147;28;20477;-80
2023/08/17 05:44:33;;;;;;;5.10;2.63;;;21.30;99.90;;;;;;5054804;28;20471;-81
2023/08/17 05:47:00;;;;;;;6.93;3.03;;;21.30;99.90;;;;;;5054187;28;20965;-82
2023/08/17 05:49:27;;;;;;;6.60;3.43;;;21.40;99.90;;;;;;5058620;28;20455;-80
2023/08/17 05:51:54;;;;;;;4.07;2.57;;;21.40;99.90;;;;;;5053942;28;20471;-80
2023/08/17 05:54:21;;;;;;;6.80;2.80;;;21.40;99.90;;;;;;5053320;28;20478;-80
2023/08/17 05:56:52;;;;;;;4.47;2.57;;;21.50;99.90;;;;;;5053819;28;20475;-80
2023/08/17 05:59:19;;;;;;;4.60;2.93;;;21.50;99.90;;;;;;5059913;28;20868;-80
2023/08/17 06:01:46;;;;;;;5.17;2.87;;;21.60;99.90;;;;;;5053405;28;20509;-80
2023/08/17 06:04:13;;;;;;;2.77;2.53;;;21.60;99.90;;;;;;5053068;28;20510;-81
2023/08/17 06:06:40;;;;;;;3.13;2.60;;;21.70;99.90;;;;;;5053231;28;20558;-80
2023/08/17 06:09:08;;;;;;;3.33;2.90;;;21.80;99.90;;;;;;5052256;28;20471;-82
2023/08/17 06:11:38;;;;;;;3.20;2.90;;;21.80;99.90;;;;;;5053011;28;20467;-80
2023/08/17 06:14:09;;;;;;;3.60;2.57;;;21.80;99.90;;;;;;5053086;28;20467;-80
2023/08/17 06:16:36;;;;;;;2.90;2.70;;;21.90;99.90;;;;;;5053153;28;20455;-82
2023/08/17 06:19:04;;;;;;;3.90;2.73;;;21.90;99.90;;;;;;5053347;28;20544;-81
2023/08/17 06:21:31;;;;;;;2.63;2.33;;;22.00;99.90;;;;;;5052826;28;20474;-82
2023/08/17 06:23:58;;;;;;;3.13;2.70;;;22.00;99.90;;;;;;5052913;28;20525;-81
2023/08/17 06:26:25;;;;;;;5.53;2.73;;;22.10;99.90;;;;;;5050286;28;20463;-81
2023/08/17 06:28:52;;;;;;;3.07;2.80;;;22.10;99.90;;;;;;5053313;28;20528;-79
2023/08/17 06:31:20;;;;;;;3.10;2.60;;;22.20;99.90;;;;;;5054528;28;20470;-81
2023/08/17 06:33:47;;;;;;;2.47;2.27;;;22.20;99.90;;;;;;5056961;28;20475;-80
2023/08/17 06:36:16;;;;;;;3.77;2.77;;;22.30;99.90;;;;;;5056405;28;20550;-82
2023/08/17 06:38:43;;;;;;;3.17;2.70;;;22.30;99.90;;;;;;5056575;28;20467;-82
2023/08/17 06:41:10;;;;;;;5.37;3.60;;;22.40;99.90;;;;;;5056361;28;20952;-81
2023/08/17 06:43:37;;;;;;;3.03;2.50;;;22.40;99.90;;;;;;5056140;28;20487;-82
2023/08/17 06:46:04;;;;;;;2.93;2.67;;;22.50;99.90;;;;;;5056083;28;20490;-82
2023/08/17 06:48:33;;;;;;;3.23;2.97;;;22.50;99.90;;;;;;5056084;28;20485;-81
2023/08/17 06:51:00;;;;;;;3.23;2.53;;;22.60;99.90;;;;;;5055722;28;20495;-80
2023/08/17 06:53:27;;;;;;;4.77;2.80;;;22.60;99.90;;;;;;5055349;28;20525;-81
2023/08/17 06:55:54;;;;;;;4.30;3.33;;;22.70;99.90;;;;;;5056270;28;20495;-82
2023/08/17 06:58:26;;;;;;;4.53;3.53;;;22.80;99.90;;;;;;5055363;28;20542;-81
2023/08/17 07:00:54;;;;;;;3.20;2.90;;;22.80;99.90;;;;;;5057157;28;20498;-82
2023/08/17 07:03:21;;;;;;;4.80;3.50;;;22.80;99.90;;;;;;5055452;28;20468;-82
2023/08/17 07:05:50;;;;;;;3.70;3.40;;;22.80;99.90;;;;;;5056413;28;20471;-82
2023/08/17 07:08:17;;;;;;;2.43;2.23;;;22.90;99.90;;;;;;5056108;28;20478;-81
2023/08/17 07:10:44;;;;;;;3.10;2.90;;;22.90;99.90;;;;;;5057601;28;20969;-82
2023/08/17 07:13:12;;;;;;;3.67;3.10;;;22.90;99.90;;;;;;5058149;28;20479;-82
2023/08/17 07:15:39;;;;;;;4.20;2.90;;;22.90;99.90;;;;;;5055601;28;20464;-82
2023/08/17 07:18:06;;;;;;;4.90;3.30;;;23.00;99.90;;;;;;5056250;28;20504;-82
2023/08/17 07:20:33;;;;;;;3.50;3.00;;;23.00;99.90;;;;;;5055603;28;20463;-80
2023/08/17 07:23:03;;;;;;;3.90;3.60;;;23.00;99.90;;;;;;5055811;28;20468;-81
2023/08/17 07:25:30;;;;;;;4.20;3.50;;;23.10;99.90;;;;;;5055931;28;20480;-81
2023/08/17 07:27:57;;;;;;;4.60;2.70;;;23.10;99.90;;;;;;5055919;28;20471;-83
2023/08/17 07:30:25;;;;;;;3.20;2.90;;;23.10;99.90;;;;;;5055836;28;20686;-82
2023/08/17 07:32:52;;;;;;;3.13;2.80;;;23.10;99.90;;;;;;5056762;28;20463;-82
2023/08/17 07:35:19;;;;;;;3.40;2.53;;;23.10;99.90;;;;;;5054623;28;20482;-80
2023/08/17 07:37:48;;;;;;;2.97;2.77;;;23.10;99.90;;;;;;5055496;28;20498;-80
2023/08/17 07:40:17;;;;;;;3.33;3.03;;;23.20;99.90;;;;;;5055532;28;20479;-83
2023/08/17 07:42:44;;;;;;;4.63;3.07;;;23.20;99.90;;;;;;5056122;28;20524;-80
2023/08/17 07:45:11;;;;;;;4.23;3.33;;;23.30;99.90;;;;;;5059295;28;20498;-79
2023/08/17 07:47:39;;;;;;;3.40;3.10;;;23.30;99.90;;;;;;5054345;28;20471;-81
2023/08/17 07:50:08;;;;;;;3.40;3.10;;;23.30;99.90;;;;;;5055723;28;20475;-81
2023/08/17 07:52:44;;;;;;;3.73;3.13;;;23.30;99.90;;;;;;5046165;28;20475;-80
2023/08/17 07:55:40;;;;;;;3.53;3.20;;;23.30;99.90;;;;;;5067451;28;20478;-81
2023/08/17 07:58:07;;;;;;;4.63;3.43;;;23.30;99.90;;;;;;5056135;28;20492;-80
2023/08/17 08:00:36;;;;;;;4.80;3.03;;;23.30;99.90;;;;;;5055153;28;20474;-81
2023/08/17 08:03:03;;;;;;;6.23;4.07;;;23.40;99.90;;;;;;5055548;28;20482;-79
2023/08/17 08:05:30;;;;;;;5.90;4.17;;;23.40;99.90;;;;;;5054369;28;20460;-80
2023/08/17 08:07:57;;;;;;;3.57;3.07;;;23.40;99.90;;;;;;5055059;28;20471;-80
2023/08/17 08:10:26;;;;;;;4.60;2.60;;;23.50;99.90;;;;;;5054343;28;20468;-79
2023/08/17 08:12:53;;;;;;;3.53;3.23;;;23.50;99.90;;;;;;5054933;28;20463;-81
2023/08/17 08:15:20;;;;;;;4.97;4.00;;;23.60;99.90;;;;;;5054859;28;20479;-82
2023/08/17 08:17:47;;;;;;;4.70;3.77;;;23.60;99.90;;;;;;5054560;28;20467;-80
2023/08/17 08:20:15;;;;;;;3.67;3.10;;;23.60;99.90;;;;;;5054794;28;20467;-82
2023/08/17 08:22:42;;;;;;;3.83;3.57;;;23.70;99.90;;;;;;5055252;28;20963;-80
2023/08/17 08:25:09;;;;;;;3.37;3.07;;;23.70;99.90;;;;;;5053975;28;20475;-80
2023/08/17 08:27:38;;;;;;;4.67;2.90;;;23.80;99.90;;;;;;5054321;28;20463;-80
2023/08/17 08:30:06;;;;;;;4.07;3.67;;;23.90;99.90;;;;;;5055659;28;20471;-82
2023/08/17 08:32:34;;;;;;;4.10;3.77;;;23.90;99.90;;;;;;5053756;28;20805;-82
2023/08/17 08:35:01;;;;;;;6.10;3.30;;;24.00;99.90;;;;;;5053865;28;20821;-80
2023/08/17 08:37:28;;;;;;;3.40;3.10;;;24.10;99.90;;;;;;5053632;28;20489;-80
2023/08/17 08:39:59;;;;;;;4.03;3.47;;;24.20;99.90;;;;;;5054455;28;20475;-78
2023/08/17 08:42:31;;;;;;;3.80;3.40;;;24.20;99.90;;;;;;5053870;28;20478;-82
2023/08/17 08:45:00;;;;;;;5.87;3.67;;;24.20;99.90;;;;;;5059190;28;20473;-80
2023/08/17 08:47:29;;;;;;;3.50;3.30;;;24.20;99.90;;;;;;5053985;28;20477;-79
2023/08/17 08:50:02;;;;;;;7.93;3.77;;;24.20;99.90;;;;;;5054254;28;20463;-81
2023/08/17 08:55:56;;;;;;;4.53;3.67;;;24.10;99.90;;;;;;5046587;28;20463;-80
2023/08/17 08:58:25;;;;;;;3.87;3.57;;;24.00;99.90;;;;;;5053866;28;20494;-81
2023/08/17 09:00:54;;;;;;;3.63;3.30;;;24.00;99.90;;;;;;5054110;28;20546;-79
2023/08/17 09:03:22;;;;;;;3.47;3.20;;;24.00;99.90;;;;;;5054264;28;20460;-80
2023/08/17 09:05:50;;;;;;;5.00;4.00;;;24.00;99.90;;;;;;5054616;28;21020;-81
2023/08/17 09:08:21;;;;;;;3.90;3.60;;;23.90;99.90;;;;;;5053478;28;20549;-81
2023/08/17 09:10:48;;;;;;;4.63;4.20;;;23.90;99.90;;;;;;5053750;28;20479;-82
2023/08/17 09:13:15;;;;;;;9.37;4.17;;;23.90;99.90;;;;;;5053018;28;20471;-80
2023/08/17 09:15:42;;;;;;;3.73;3.43;;;23.90;99.90;;;;;;5053604;28;20466;-80
2023/08/17 09:18:11;;;;;;;4.03;3.07;;;23.80;99.90;;;;;;5053192;28;20984;-81
2023/08/17 09:20:40;;;;;;;8.07;3.77;;;23.80;99.90;;;;;;5053683;28;20851;-82
2023/08/17 09:23:22;;;;;;;5.27;4.03;;;23.80;99.90;;;;;;5053212;28;20463;-81
2023/08/17 09:25:51;;;;;;;4.00;3.70;;;23.70;99.90;;;;;;5053259;28;20957;-80
2023/08/17 09:28:20;;;;;;;3.87;3.57;;;23.70;99.90;;;;;;5052691;28;20467;-82
2023/08/17 09:30:52;;;;;;;6.00;4.40;;;23.80;99.90;;;;;;5052686;28;20979;-82
2023/08/17 09:33:21;;;;;;;4.13;3.87;;;23.80;99.90;;;;;;5052660;28;20487;-80
2023/08/17 09:35:54;;;;;;;4.57;4.03;;;23.90;99.90;;;;;;5053139;28;20559;-81
2023/08/17 09:38:21;;;;;;;4.83;3.70;;;23.90;99.90;;;;;;5052970;28;20554;-84
2023/08/17 09:40:48;;;;;;;7.00;3.80;;;24.00;99.90;;;;;;5044578;28;20485;-82
2023/08/17 09:43:15;;;;;;;5.30;4.87;;;24.00;99.90;;;;;;5052952;28;20495;-80
2023/08/17 09:45:44;;;;;;;6.90;4.30;;;24.20;99.90;;;;;;5052917;28;20550;-81
2023/08/17 09:48:11;;;;;;;4.27;3.97;;;24.20;99.90;;;;;;5052397;28;20801;-80
2023/08/17 09:50:39;;;;;;;5.80;4.37;;;24.20;99.90;;;;;;5053274;28;20896;-80
2023/08/17 09:53:06;;;;;;;4.57;4.17;;;24.20;99.90;;;;;;5053184;28;20563;-80
2023/08/17 09:55:34;;;;;;;4.53;3.80;;;24.30;99.90;;;;;;5052693;28;20543;-82
2023/08/17 09:58:01;;;;;;;3.60;3.40;;;24.30;99.90;;;;;;5052825;28;20470;-82
2023/08/17 10:00:29;;;;;;;4.00;3.70;;;24.40;99.90;;;;;;5052094;28;20490;-82
2023/08/17 10:02:59;;;;;;;4.50;4.20;;;24.40;99.90;;;;;;5053341;28;20513;-82
2023/08/17 10:05:29;;;;;;;5.70;5.10;;;24.50;99.90;;;;;;5052634;28;20483;-82
2023/08/17 10:08:00;;;;;;;4.23;3.60;;;24.70;99.90;;;;;;5056959;28;20482;-81
2023/08/17 10:10:29;;;;;;;5.60;3.90;;;24.80;99.90;;;;;;5056586;28;20558;-80
2023/08/17 10:13:06;;;;;;;4.50;4.10;;;24.70;99.90;;;;;;5056887;28;20471;-80
2023/08/17 10:15:35;;;;;;;4.30;3.90;;;24.70;99.90;;;;;;5056431;28;20542;-78
2023/08/17 10:18:17;;;;;;;5.27;4.80;;;24.70;99.90;;;;;;5057167;28;20489;-81
2023/08/17 10:20:59;;;;;;;5.10;4.60;;;24.70;99.90;;;;;;5067856;28;20447;-81
2023/08/17 10:23:30;;;;;;;3.90;3.60;;;24.70;99.90;;;;;;5062338;28;20463;-82
2023/08/17 10:26:01;;;;;;;4.80;3.90;;;24.60;99.90;;;;;;5053279;28;20485;-80
2023/08/17 10:28:28;;;;;;;5.10;4.53;;;24.60;99.90;;;;;;5064194;28;20498;-80
2023/08/17 10:30:56;;;;;;;4.50;4.10;;;24.60;99.90;;;;;;5056295;28;20503;-80
2023/08/17 10:33:23;;;;;;;4.23;3.90;;;24.60;99.90;;;;;;5056214;28;20473;-82
2023/08/17 10:35:50;;;;;;;4.23;3.93;;;24.60;99.90;;;;;;5056341;28;20478;-81
2023/08/17 10:38:18;;;;;;;5.03;4.53;;;24.50;99.90;;;;;;5061431;28;20556;-80
2023/08/17 10:41:06;;;;;;;4.43;3.70;;;24.50;99.90;;;;;;5056531;28;20481;-82
2023/08/17 10:43:34;;;;;;;4.70;4.30;;;24.60;99.90;;;;;;5056026;28;20541;-82
2023/08/17 10:46:17;;;;;;;5.97;4.00;;;24.60;99.90;;;;;;5056018;28;20506;-81
2023/08/17 10:48:45;;;;;;;4.90;4.40;;;24.70;99.90;;;;;;5055885;28;20497;-81
2023/08/17 10:51:13;;;;;;;5.10;4.80;;;24.80;99.90;;;;;;5056206;28;20487;-80
2023/08/17 10:53:43;;;;;;;5.40;4.90;;;24.90;99.90;;;;;;5055955;28;20758;-81
2023/08/17 10:56:15;;;;;;;4.70;4.40;;;24.90;99.90;;;;;;5055744;28;20471;-82
2023/08/17 10:58:44;;;;;;;4.73;4.43;;;25.00;99.90;;;;;;5055741;28;20463;-82
2023/08/17 11:01:20;;;;;;;7.00;4.10;;;25.10;99.90;;;;;;5055927;28;20482;-83
2023/08/17 11:04:08;;;;;;;5.10;4.10;;;25.10;99.90;;;;;;5055629;28;20522;-82
2023/08/17 11:06:36;;;;;;;4.67;4.27;;;25.10;99.90;;;;;;5055463;28;20463;-80
2023/08/17 11:09:08;;;;;;;4.70;4.30;;;25.20;99.90;;;;;;5055941;28;20565;-80
2023/08/17 11:11:36;;;;;;;4.57;4.20;;;25.20;99.90;;;;;;5055087;28;20472;-80
2023/08/17 11:14:04;;;;;;;4.33;4.03;;;25.30;99.90;;;;;;5055920;28;20472;-81
2023/08/17 11:16:31;;;;;;;4.30;3.90;;;25.40;99.90;;;;;;5054657;28;20554;-81
2023/08/17 11:19:01;;;;;;;4.60;4.03;;;25.40;99.90;;;;;;5055189;28;20459;-81
2023/08/17 11:21:31;;;;;;;4.70;4.30;;;25.40;99.90;;;;;;5054788;28;20477;-82
2023/08/17 11:23:59;;;;;;;6.37;4.13;;;25.40;99.90;;;;;;5054511;28;20857;-81
2023/08/17 11:26:27;;;;;;;4.63;4.33;;;25.40;99.90;;;;;;5055344;28;20471;-81
2023/08/17 11:28:56;;;;;;;6.90;4.77;;;25.40;99.90;;;;;;5055711;28;20501;-82
2023/08/17 11:31:23;;;;;;;5.87;5.27;;;25.40;99.90;;;;;;5055206;28;20550;-82
2023/08/17 11:33:51;;;;;;;4.90;4.50;;;25.40;99.90;;;;;;5054226;28;20457;-83
2023/08/17 11:36:18;;;;;;;4.90;4.50;;;25.40;99.90;;;;;;5055437;28;20521;-82
2023/08/17 11:38:45;;;;;;;4.97;4.53;;;25.50;99.90;;;;;;5054574;28;20464;-82
2023/08/17 11:41:14;;;;;;;4.93;4.53;;;25.60;99.90;;;;;;5055413;28;20496;-81
2023/08/17 11:43:41;;;;;;;4.80;4.40;;;25.60;99.90;;;;;;5054571;28;20828;-79
2023/08/17 11:46:10;;;;;;;5.23;4.73;;;25.70;99.90;;;;;;5055251;28;20467;-81
2023/08/17 11:48:38;;;;;;;4.90;4.50;;;25.80;99.90;;;;;;5054791;28;20467;-82
2023/08/17 11:51:05;;;;;;;5.43;5.03;;;25.80;99.90;;;;;;5055163;28;20471;-81
2023/08/17 11:53:35;;;;;;;5.27;4.60;;;25.90;99.90;;;;;;5051626;28;20482;-81
2023/08/17 11:56:02;;;;;;;5.23;4.80;;;25.90;99.90;;;;;;5061407;28;20547;-81
2023/08/17 11:58:42;;;;;;;5.57;5.17;;;26.00;99.90;;;;;;5055326;28;20472;-83
2023/08/17 12:01:12;;;;;;;5.33;4.93;;;26.00;99.90;;;;;;5055048;28;20468;-83
2023/08/17 12:03:41;;;;;;;5.20;4.60;;;26.00;99.90;;;;;;5055185;28;20520;-83
2023/08/17 12:06:08;;;;;;;4.63;4.30;;;26.10;99.90;;;;;;5054608;28;20458;-82
2023/08/17 12:08:35;;;;;;;4.53;4.23;;;26.20;99.90;;;;;;5055231;28;20478;-81
2023/08/17 12:11:05;;;;;;;5.07;4.67;;;26.20;99.90;;;;;;5054432;28;20977;-82
2023/08/17 12:13:34;;;;;;;6.10;5.50;;;26.20;99.90;;;;;;5055066;28;20482;-81
2023/08/17 12:16:01;;;;;;;5.63;5.33;;;26.30;99.90;;;;;;5054502;28;20559;-83
2023/08/17 12:18:33;;;;;;;6.03;4.83;;;26.30;99.90;;;;;;5046260;28;20477;-82
2023/08/17 12:21:00;;;;;;;6.63;5.17;;;26.40;99.90;;;;;;5052884;28;20527;-81
2023/08/17 12:23:30;;;;;;;6.00;5.50;;;26.40;99.90;;;;;;5054334;28;20458;-81
2023/08/17 12:26:00;;;;;;;5.53;5.13;;;26.30;99.90;;;;;;5053712;28;20538;-84
2023/08/17 12:28:27;;;;;;;8.43;5.63;;;26.40;99.90;;;;;;5053988;28;20531;-80
2023/08/17 12:31:04;;;;;;;5.77;5.20;;;26.50;99.90;;;;;;5059828;28;20473;-82
2023/08/17 12:33:33;;;;;;;6.93;6.00;;;26.50;99.90;;;;;;5049142;28;20478;-81
2023/08/17 12:35:59;;;;;;;6.33;5.73;;;26.60;99.90;;;;;;5064112;28;20469;-81
2023/08/17 12:38:29;;;;;;;6.40;5.90;;;26.60;99.90;;;;;;5054461;28;20841;-82
2023/08/17 12:40:58;;;;;;;6.73;6.10;;;26.60;99.90;;;;;;5054082;28;20473;-82
2023/08/17 12:43:28;;;;;;;6.37;5.93;;;26.70;99.90;;;;;;5054337;28;20466;-83
2023/08/17 12:45:55;;;;;;;7.17;6.47;;;26.70;99.90;;;;;;5054701;28;20493;-82
2023/08/17 12:48:21;;;;;;;6.03;5.63;;;26.70;99.90;;;;;;5053997;28;20469;-81
2023/08/17 12:50:50;;;;;;;8.03;7.27;;;26.70;99.90;;;;;;5053583;28;20963;-80
2023/08/17 12:53:17;;;;;;;6.37;5.77;;;26.70;99.90;;;;;;5053863;28;20470;-80
2023/08/17 12:55:44;;;;;;;5.90;5.50;;;26.70;99.90;;;;;;5053889;28;20471;-82
2023/08/17 12:58:11;;;;;;;6.50;6.00;;;26.70;99.90;;;;;;5053494;28;20505;-80